Time;durP1;ratioP1;P1;durP2;ratioP2;P2;SDS_P1;SDS_P2;PMS_P1;PMS_P2;Temp;Humidity;BMP_temperature;BMP_pressure;BME280_temperature;BME280_humidity;BME280_pressure;Samples;Min_cycle;Max_cycle;Signal;HPM_P1;HPM_P2
2021/04/04 00:00:48;;;;;;;24.90;6.25;;;;;;;4.58;71.32;101336.00;5009289;28;20064;-72
2021/04/04 00:03:14;;;;;;;26.85;6.03;;;;;;;4.53;72.07;101345.75;5015394;28;20058;-72
2021/04/04 00:05:40;;;;;;;32.38;7.53;;;;;;;4.60;71.50;101355.34;5015126;28;20098;-72
2021/04/04 00:08:07;;;;;;;35.42;5.82;;;;;;;4.55;71.63;101350.13;5015144;28;20058;-72
2021/04/04 00:10:33;;;;;;;30.75;5.88;;;;;;;4.44;72.03;101352.06;5015297;28;20056;-72
2021/04/04 00:12:59;;;;;;;40.80;6.40;;;;;;;4.49;72.10;101340.50;4998153;28;20104;-72
2021/04/04 00:15:26;;;;;;;29.13;6.93;;;;;;;4.35;72.62;101327.53;5015393;28;20056;-72
2021/04/04 00:17:52;;;;;;;22.38;6.05;;;;;;;4.40;72.40;101350.41;5013995;28;20136;-72
2021/04/04 00:20:19;;;;;;;27.75;5.80;;;;;;;4.41;72.32;101342.41;5013964;28;20498;-72
2021/04/04 00:22:46;;;;;;;36.25;5.93;;;;;;;4.35;72.22;101338.09;5015315;28;20054;-72
2021/04/04 00:25:14;;;;;;;27.85;6.60;;;;;;;4.23;72.42;101324.22;5014040;28;20092;-72
2021/04/04 00:27:41;;;;;;;27.65;6.32;;;;;;;4.21;72.90;101333.03;5015315;28;20084;-72
2021/04/04 00:30:12;;;;;;;30.23;7.25;;;;;;;4.19;72.69;101333.94;5014938;28;20053;-72
2021/04/04 00:32:38;;;;;;;36.70;6.22;;;;;;;4.12;73.05;101322.63;5014818;28;20054;-72
2021/04/04 00:35:20;;;;;;;26.90;6.00;;;;;;;4.10;73.76;101332.34;5015140;28;20186;-73
2021/04/04 00:37:58;;;;;;;29.08;7.43;;;;;;;4.07;74.00;101332.38;5014881;28;20461;-72
2021/04/04 00:40:28;;;;;;;31.60;7.00;;;;;;;4.17;73.37;101328.72;5015160;28;20140;-72
2021/04/04 00:42:54;;;;;;;28.60;6.85;;;;;;;4.06;73.60;101325.34;5015113;28;20054;-70
2021/04/04 00:45:23;;;;;;;38.47;6.45;;;;;;;4.11;73.37;101328.81;5014964;28;20046;-71
2021/04/04 00:47:50;;;;;;;23.83;5.75;;;;;;;4.02;73.89;101326.28;5015002;28;20062;-72
2021/04/04 00:50:18;;;;;;;26.63;5.28;;;;;;;3.97;74.01;101326.34;5015090;28;20108;-71
2021/04/04 00:52:45;;;;;;;31.60;6.32;;;;;;;3.97;74.24;101325.50;5014791;28;20123;-71
2021/04/04 00:55:13;;;;;;;29.35;8.38;;;;;;;4.04;73.82;101325.38;5013746;28;20420;-72
2021/04/04 00:57:41;;;;;;;32.30;8.15;;;;;;;4.16;73.91;101324.31;5013660;28;20053;-71
2021/04/04 01:00:10;;;;;;;22.17;6.60;;;;;;;4.21;73.21;101324.25;5014941;28;20060;-72
2021/04/04 01:02:38;;;;;;;29.35;5.78;;;;;;;4.13;73.40;101315.56;5015402;28;20109;-71
2021/04/04 01:05:07;;;;;;;26.27;6.20;;;;;;;4.21;73.17;101330.38;5018553;28;20054;-71
2021/04/04 01:07:34;;;;;;;26.83;7.10;;;;;;;4.18;73.34;101325.16;5018497;28;20440;-73
2021/04/04 01:10:06;;;;;;;29.80;7.03;;;;;;;4.14;73.49;101333.16;5018249;28;20053;-73
2021/04/04 01:12:43;;;;;;;29.00;6.50;;;;;;;4.13;73.27;101320.84;5017978;28;20463;-72
2021/04/04 01:15:20;;;;;;;41.90;7.80;;;;;;;4.11;73.45;101322.63;5017214;28;20042;-72
2021/04/04 01:17:49;;;;;;;29.35;6.95;;;;;;;4.08;73.80;101328.81;5018035;28;20053;-71
2021/04/04 01:20:24;;;;;;;29.45;6.70;;;;;;;4.05;73.81;101326.25;5016857;28;20049;-73
2021/04/04 01:23:09;;;;;;;26.05;6.63;;;;;;;3.86;74.71;101329.16;5017926;28;20109;-72
2021/04/04 01:25:43;;;;;;;23.23;5.22;;;;;;;3.76;74.90;101327.53;5017984;28;20053;-72
2021/04/04 01:28:26;;;;;;;28.58;5.78;;;;;;;3.75;74.92;101342.50;5017770;28;20061;-73
2021/04/04 01:30:53;;;;;;;21.75;5.18;;;;;;;3.73;75.09;101333.75;5017875;28;20124;-73
2021/04/04 01:33:21;;;;;;;24.63;6.20;;;;;;;3.66;75.05;101332.94;5016803;28;20049;-72
2021/04/04 01:35:51;;;;;;;22.63;5.45;;;;;;;3.66;75.46;101337.34;5017078;28;20084;-73
2021/04/04 01:38:23;;;;;;;24.20;6.33;;;;;;;3.70;75.46;101340.84;5017606;28;20050;-72
2021/04/04 01:40:56;;;;;;;26.80;5.70;;;;;;;3.65;75.46;101325.91;5017740;28;20279;-73
2021/04/04 01:43:24;;;;;;;23.42;5.50;;;;;;;3.74;75.19;101335.47;5017645;28;20050;-72
2021/04/04 01:45:52;;;;;;;26.67;5.60;;;;;;;3.65;75.64;101333.84;5016499;28;20053;-73
2021/04/04 01:48:19;;;;;;;25.48;5.63;;;;;;;3.66;75.64;101345.28;5016181;28;20443;-72
2021/04/04 01:50:45;;;;;;;20.17;5.50;;;;;;;3.61;75.80;101336.53;5017464;28;20045;-73
2021/04/04 01:53:16;;;;;;;26.20;5.70;;;;;;;3.57;76.13;101322.50;5017322;28;20049;-72
2021/04/04 01:55:44;;;;;;;22.80;5.40;;;;;;;3.62;75.88;101336.53;5017561;28;20053;-72
2021/04/04 01:58:11;;;;;;;36.33;6.72;;;;;;;3.60;75.88;101326.88;5016058;28;20108;-72
2021/04/04 02:00:39;;;;;;;25.50;5.70;;;;;;;3.65;76.04;101339.13;5017469;28;20112;-72
2021/04/04 02:03:07;;;;;;;22.27;5.45;;;;;;;3.68;75.95;101332.91;5017077;28;20054;-72
2021/04/04 02:05:34;;;;;;;22.55;5.70;;;;;;;3.73;75.58;101324.94;5017414;28;20058;-72
2021/04/04 02:08:07;;;;;;;26.63;6.55;;;;;;;3.73;75.75;101333.75;5017226;28;20100;-72
2021/04/04 02:10:36;;;;;;;33.55;6.53;;;;;;;3.76;75.62;101325.75;5019420;28;20057;-72
2021/04/04 02:13:03;;;;;;;30.38;6.22;;;;;;;3.79;75.75;101323.09;5021306;28;20108;-72
2021/04/04 02:15:31;;;;;;;22.73;6.25;;;;;;;3.71;76.17;101327.59;5019745;28;20054;-72
2021/04/04 02:17:59;;;;;;;24.33;5.30;;;;;;;3.83;75.64;101317.75;5019367;28;20060;-72
2021/04/04 02:20:27;;;;;;;33.88;6.10;;;;;;;3.88;75.27;101316.78;5018654;28;20050;-73
2021/04/04 02:22:57;;;;;;;23.83;5.32;;;;;;;3.88;75.36;101310.66;5016785;28;20077;-71
2021/04/04 02:25:23;;;;;;;30.60;5.97;;;;;;;3.98;75.34;101314.03;5015551;28;20049;-72
2021/04/04 02:27:49;;;;;;;25.58;6.65;;;;;;;4.01;75.14;101321.88;5016692;28;20462;-71
2021/04/04 02:30:17;;;;;;;20.13;6.07;;;;;;;4.02;75.65;101319.25;5016770;28;20355;-71
2021/04/04 02:32:57;;;;;;;26.55;6.63;;;;;;;4.03;75.48;101314.84;5017055;28;20049;-73
2021/04/04 02:35:32;;;;;;;24.93;6.37;;;;;;;4.05;75.00;101318.31;5016761;28;20057;-71
2021/04/04 02:38:01;;;;;;;32.88;6.55;;;;;;;4.07;74.90;101309.47;5015564;28;20057;-72
2021/04/04 02:40:30;;;;;;;29.15;5.18;;;;;;;4.15;74.16;101309.34;5015423;28;20054;-72
2021/04/04 02:42:57;;;;;;;22.85;6.18;;;;;;;4.13;74.75;101321.72;5016681;28;20375;-71
2021/04/04 02:45:26;;;;;;;25.83;6.35;;;;;;;4.19;74.16;101313.69;5016324;28;20446;-72
2021/04/04 02:48:02;;;;;;;30.77;6.07;;;;;;;4.25;73.81;101311.84;5015415;28;20124;-72
2021/04/04 02:50:30;;;;;;;25.63;6.30;;;;;;;4.27;73.91;101310.06;5015381;28;20477;-72
2021/04/04 02:52:59;;;;;;;32.65;6.93;;;;;;;4.37;74.25;101311.66;5016265;28;20355;-72
2021/04/04 02:55:28;;;;;;;23.98;6.07;;;;;;;4.32;73.89;101295.84;5016597;28;20352;-71
2021/04/04 02:57:55;;;;;;;24.02;5.93;;;;;;;4.28;74.11;101296.81;5016328;28;20387;-72
2021/04/04 03:00:22;;;;;;;36.17;6.28;;;;;;;4.31;74.14;101294.13;5016093;28;20100;-73
2021/04/04 03:02:52;;;;;;;25.50;6.63;;;;;;;4.41;74.12;101292.19;5016284;28;20054;-73
2021/04/04 03:05:22;;;;;;;30.42;5.93;;;;;;;4.25;73.96;101278.34;5016187;28;20104;-73
2021/04/04 03:07:51;;;;;;;27.00;5.72;;;;;;;4.37;73.62;101290.50;5016005;28;20443;-73
2021/04/04 03:10:17;;;;;;;30.77;7.30;;;;;;;4.37;73.23;101286.97;5015887;28;20104;-73
2021/04/04 03:12:46;;;;;;;27.80;6.22;;;;;;;4.37;72.42;101293.16;5016041;28;20053;-73
2021/04/04 03:15:15;;;;;;;25.42;6.65;;;;;;;4.42;72.35;101290.44;5015997;28;20064;-73
2021/04/04 03:17:46;;;;;;;29.80;6.00;;;;;;;4.48;72.77;101290.31;5016139;28;20053;-73
2021/04/04 03:20:14;;;;;;;29.13;6.50;;;;;;;4.48;72.98;101285.03;5015799;28;20061;-73
2021/04/04 03:22:44;;;;;;;23.38;6.80;;;;;;;4.49;72.62;101292.91;5014976;28;20045;-73
2021/04/04 03:25:12;;;;;;;34.40;7.17;;;;;;;4.55;72.35;101294.59;5015318;28;20045;-73
2021/04/04 03:27:45;;;;;;;25.70;5.05;;;;;;;4.63;71.96;101294.44;5015416;28;20291;-72
2021/04/04 03:30:58;;;;;;;23.75;5.93;;;;;;;4.58;72.06;101280.47;5016014;28;20100;-72
2021/04/04 03:33:05;;;;;;;28.95;6.38;;;;;;;4.53;72.98;101291.09;5015092;28;20447;-72
2021/04/04 03:35:32;;;;;;;22.10;5.68;;;;;;;4.60;72.61;101295.41;5015439;28;20058;-72
2021/04/04 03:38:01;;;;;;;22.23;6.32;;;;;;;4.48;71.98;101279.75;5015798;28;20081;-72
2021/04/04 03:40:28;;;;;;;40.20;6.57;;;;;;;4.55;71.49;101284.03;5015389;28;20424;-72
2021/04/04 03:42:56;;;;;;;25.65;6.75;;;;;;;4.54;71.26;101281.41;4998065;28;20054;-72
2021/04/04 03:45:24;;;;;;;27.63;6.45;;;;;;;4.47;71.41;101272.72;5015214;28;20419;-72
2021/04/04 03:47:51;;;;;;;20.13;5.72;;;;;;;4.60;70.84;101278.66;5015239;28;20070;-72
2021/04/04 03:50:19;;;;;;;23.88;5.65;;;;;;;4.59;70.33;101271.63;4998224;28;20053;-72
2021/04/04 03:52:47;;;;;;;26.15;6.18;;;;;;;4.64;71.08;101274.19;5015327;28;20045;-72
2021/04/04 03:55:18;;;;;;;26.38;6.32;;;;;;;4.62;70.93;101269.81;5015231;28;20053;-72
2021/04/04 03:57:45;;;;;;;33.00;5.82;;;;;;;4.64;71.38;101276.81;5015601;28;20046;-72
2021/04/04 04:00:13;;;;;;;38.75;7.07;;;;;;;4.58;72.35;101270.75;5014418;28;20050;-72
2021/04/04 04:02:41;;;;;;;30.30;6.70;;;;;;;4.57;71.83;101268.16;5015797;28;20054;-72
2021/04/04 04:05:08;;;;;;;26.27;6.70;;;;;;;4.59;72.38;101274.28;5015101;28;20192;-72
2021/04/04 04:07:37;;;;;;;26.38;6.47;;;;;;;4.53;71.93;101256.72;5015601;28;20072;-72
2021/04/04 04:10:04;;;;;;;30.70;5.72;;;;;;;4.50;72.23;101251.50;5015269;28;20053;-72
2021/04/04 04:12:33;;;;;;;30.08;6.47;;;;;;;4.60;71.62;101249.56;5015036;28;20133;-71
2021/04/04 04:15:01;;;;;;;31.88;5.68;;;;;;;4.61;71.77;101248.66;5015379;28;20108;-71
2021/04/04 04:17:27;;;;;;;31.75;6.07;;;;;;;4.63;71.26;101249.50;5015848;28;20440;-71
2021/04/04 04:19:54;;;;;;;31.45;5.45;;;;;;;4.60;70.71;101246.94;5015429;28;20042;-71
2021/04/04 04:22:22;;;;;;;20.10;5.82;;;;;;;4.63;70.42;101249.50;5014934;28;20057;-73
2021/04/04 04:24:50;;;;;;;28.67;5.93;;;;;;;4.53;70.67;101234.72;5014385;28;20049;-73
2021/04/04 04:27:17;;;;;;;27.45;6.82;;;;;;;4.54;70.60;101242.63;5014077;28;20454;-73
2021/04/04 04:29:49;;;;;;;27.85;5.88;;;;;;;4.51;70.58;101241.81;5014212;28;20049;-73
2021/04/04 04:32:20;;;;;;;33.95;7.35;;;;;;;4.45;70.73;101226.91;5015372;28;20054;-73
2021/04/04 04:34:47;;;;;;;;;;;;;;;4.54;71.73;101232.06;5015406;28;20046;-72
2021/04/04 04:37:14;;;;;;;25.40;5.68;;;;;;;4.62;71.83;101234.53;5016380;28;20315;-71
2021/04/04 04:39:42;;;;;;;22.98;5.00;;;;;;;4.57;72.29;101233.78;5018968;28;20061;-72
2021/04/04 04:42:10;;;;;;;33.53;6.00;;;;;;;4.61;70.80;101224.88;5019205;28;20348;-72
2021/04/04 04:44:38;;;;;;;26.20;5.15;;;;;;;4.64;69.92;101230.13;5017584;28;20577;-72
2021/04/04 04:47:05;;;;;;;28.23;6.25;;;;;;;4.63;69.62;101225.69;5017215;28;20132;-72
2021/04/04 04:49:32;;;;;;;29.08;7.22;;;;;;;4.52;69.49;101217.13;5017541;28;20427;-72
2021/04/04 04:51:58;;;;;;;23.75;5.40;;;;;;;4.61;69.73;101230.16;5018831;28;20061;-72
2021/04/04 04:54:24;;;;;;;18.50;5.53;;;;;;;4.60;69.37;101225.78;5018502;28;20435;-72
2021/04/04 04:56:50;;;;;;;31.05;5.40;;;;;;;4.55;69.83;101222.34;5018589;28;20061;-72
2021/04/04 04:59:17;;;;;;;26.30;5.88;;;;;;;4.61;69.15;101227.50;5018365;28;20046;-72
2021/04/04 05:01:45;;;;;;;39.80;7.22;;;;;;;4.49;69.87;101212.75;5018433;28;20061;-72
2021/04/04 05:04:12;;;;;;;26.80;5.80;;;;;;;4.57;70.22;101233.78;5018525;28;20049;-72
2021/04/04 05:06:40;;;;;;;24.10;6.22;;;;;;;4.49;70.12;101234.75;5018111;28;20046;-72
2021/04/04 05:09:08;;;;;;;30.88;7.60;;;;;;;4.52;70.23;101243.56;5018385;28;20053;-72
2021/04/04 05:11:40;;;;;;;31.92;6.93;;;;;;;4.46;69.57;101224.25;5018214;28;20046;-72
2021/04/04 05:14:09;;;;;;;27.20;7.10;;;;;;;4.38;70.28;101220.00;5018279;28;20053;-72
2021/04/04 05:16:36;;;;;;;19.55;5.57;;;;;;;4.42;69.88;101227.00;5018155;28;20049;-72
2021/04/04 05:19:02;;;;;;;25.90;5.60;;;;;;;4.44;70.11;101226.06;5016911;28;20046;-72
2021/04/04 05:21:30;;;;;;;30.58;6.05;;;;;;;4.47;70.23;101239.22;5016576;28;20053;-72
2021/04/04 05:24:02;;;;;;;27.52;6.00;;;;;;;4.40;70.78;101242.88;5018131;28;20054;-72
2021/04/04 05:26:40;;;;;;;37.22;7.57;;;;;;;4.45;71.00;101246.31;5018207;28;20049;-71
2021/04/04 05:29:12;;;;;;;29.55;6.28;;;;;;;4.48;70.80;101248.03;5017834;28;20337;-72
2021/04/04 05:31:49;;;;;;;26.58;5.95;;;;;;;4.51;71.21;101249.75;5017983;28;20061;-72
2021/04/04 05:34:19;;;;;;;28.77;6.50;;;;;;;4.56;70.78;101250.50;5016850;28;20061;-72
2021/04/04 05:37:05;;;;;;;19.90;5.13;;;;;;;4.61;70.70;101251.31;5017748;28;20452;-72
2021/04/04 05:39:37;;;;;;;28.60;5.55;;;;;;;4.55;70.32;101249.66;5017799;28;20049;-72
2021/04/04 05:42:08;;;;;;;28.88;6.38;;;;;;;4.50;70.91;101240.94;5017707;28;20387;-72
2021/04/04 05:44:42;;;;;;;23.75;5.43;;;;;;;4.52;70.29;101244.41;5033266;28;20049;-72
2021/04/04 05:47:27;;;;;;;30.58;6.10;;;;;;;4.59;70.43;101250.47;5017336;28;20398;-72
2021/04/04 05:50:02;;;;;;;23.73;5.05;;;;;;;4.48;70.45;101240.09;5017264;28;20050;-73
2021/04/04 05:52:32;;;;;;;26.00;4.72;;;;;;;4.66;70.24;101254.75;5019246;28;20813;-72
2021/04/04 05:55:05;;;;;;;28.50;6.15;;;;;;;4.63;70.31;101252.13;5016812;28;20458;-72
2021/04/04 05:57:45;;;;;;;26.77;6.63;;;;;;;4.55;70.70;101248.78;5019262;28;20049;-72
2021/04/04 06:00:14;;;;;;;32.17;6.28;;;;;;;4.52;70.38;101244.41;5022493;28;20058;-72
2021/04/04 06:02:59;;;;;;;30.77;6.18;;;;;;;4.54;70.25;101252.31;5019284;28;20076;-80
2021/04/04 06:05:53;;;;;;;25.30;6.70;;;;;;;4.63;70.45;101252.13;5017387;28;20395;-75
2021/04/04 06:08:46;;;;;;;23.83;4.72;;;;;;;4.71;69.30;101246.72;5016523;28;20060;-76
2021/04/04 06:11:37;;;;;;;29.15;5.13;;;;;;;4.69;69.33;101246.75;5017441;28;20061;-74
2021/04/04 06:14:22;;;;;;;33.05;7.70;;;;;;;4.74;68.70;101249.31;5019249;28;20053;-74
2021/04/04 06:17:02;;;;;;;20.35;5.13;;;;;;;4.73;68.96;101248.44;5019264;28;20046;-75
2021/04/04 06:19:42;;;;;;;26.67;5.93;;;;;;;4.56;69.25;101218.78;5019401;28;20054;-75
2021/04/04 06:22:23;;;;;;;25.90;5.25;;;;;;;4.79;68.10;101243.94;5020077;28;20058;-74
2021/04/04 06:25:03;;;;;;;25.20;5.28;;;;;;;4.80;67.82;101243.03;5017630;28;20513;-72
2021/04/04 06:27:40;;;;;;;23.60;4.93;;;;;;;4.78;68.34;101244.84;5016618;28;20054;-79
2021/04/04 06:30:46;;;;;;;27.00;5.75;;;;;;;4.76;68.37;101243.06;5017200;28;20485;-74
2021/04/04 06:33:33;;;;;;;22.35;5.10;;;;;;;4.69;68.05;101235.31;5016717;28;20100;-72
2021/04/04 06:36:14;;;;;;;21.95;5.00;;;;;;;4.65;68.36;101220.38;5017114;28;20416;-74
2021/04/04 06:39:18;;;;;;;24.65;4.95;;;;;;;4.68;68.35;101245.00;5016643;28;20060;-75
2021/04/04 06:41:53;;;;;;;21.70;5.40;;;;;;;4.81;68.13;101244.78;5016694;28;20050;-74
2021/04/04 06:44:41;;;;;;;21.98;4.85;;;;;;;4.87;67.61;101245.53;5016481;28;20053;-72
2021/04/04 06:47:27;;;;;;;26.20;5.93;;;;;;;4.63;67.87;101204.53;5016382;28;20137;-72
2021/04/04 06:50:20;;;;;;;24.58;5.28;;;;;;;4.98;67.90;101239.16;5016022;28;20049;-72
2021/04/04 06:52:59;;;;;;;25.95;7.22;;;;;;;4.95;66.56;101245.38;5016128;28;20054;-72
2021/04/04 06:55:41;;;;;;;19.13;5.60;;;;;;;5.12;66.29;101246.81;5016361;28;20049;-74
2021/04/04 06:58:43;;;;;;;25.38;6.47;;;;;;;5.13;65.18;101243.25;5016213;28;20057;-73
2021/04/04 07:01:09;;;;;;;;;;;;;;;4.92;65.31;101242.78;5016517;28;20050;-75
2021/04/04 07:03:46;;;;;;;23.67;5.75;;;;;;;5.05;65.44;101245.19;5016001;28;19921;-74
2021/04/04 07:06:59;;;;;;;20.88;5.60;;;;;;;5.02;64.70;101244.34;5016116;28;20053;-74
2021/04/04 07:09:54;;;;;;;22.70;4.85;;;;;;;5.13;64.47;101244.09;5008879;28;20241;-74
2021/04/04 07:12:39;;;;;;;14.10;5.03;;;;;;;5.09;63.87;101255.69;5024543;28;20058;-74
2021/04/04 07:15:14;;;;;;;21.55;5.00;;;;;;;5.16;63.97;101256.41;5016889;28;20100;-73
2021/04/04 07:17:59;;;;;;;19.40;5.40;;;;;;;5.10;63.46;101251.25;5016041;28;20080;-73
2021/04/04 07:21:03;;;;;;;16.83;4.25;;;;;;;5.15;62.52;101250.25;5016478;28;20096;-74
2021/04/04 07:23:46;;;;;;;18.30;3.80;;;;;;;4.88;62.79;101251.69;4994417;28;20436;-77
2021/04/04 07:26:35;;;;;;;16.42;4.13;;;;;;;4.87;62.88;101252.59;5016470;28;20041;-77
2021/04/04 07:29:19;;;;;;;22.38;5.28;;;;;;;5.00;63.02;101256.75;5016558;28;20061;-75
2021/04/04 07:31:53;;;;;;;21.52;4.53;;;;;;;5.00;63.10;101251.44;5020025;28;20049;-75
2021/04/04 07:34:24;;;;;;;23.00;6.32;;;;;;;5.11;64.29;101245.03;5031238;28;20054;-75
2021/04/04 07:37:00;;;;;;;;;;;;;;;5.15;65.22;101247.63;5015431;28;20386;-75
2021/04/04 07:39:32;;;;;;;16.98;5.03;;;;;;;5.09;64.19;101246.84;5014605;28;19925;-75
2021/04/04 07:42:16;;;;;;;21.63;4.57;;;;;;;5.19;64.15;101245.78;5015544;28;20108;-74
2021/04/04 07:44:55;;;;;;;24.65;4.57;;;;;;;5.14;64.61;101252.94;5015621;28;20054;-76
2021/04/04 07:47:48;;;;;;;24.85;4.57;;;;;;;5.20;64.93;101242.22;5015686;28;20062;-78
2021/04/04 07:50:37;;;;;;;13.85;4.32;;;;;;;5.26;64.73;101251.78;5015677;28;20116;-73
2021/04/04 07:53:33;;;;;;;18.45;4.22;;;;;;;5.25;64.78;101242.13;5011935;28;20053;-73
2021/04/04 07:56:22;;;;;;;22.25;5.13;;;;;;;5.34;64.51;101238.41;5015395;28;20053;-75
2021/04/04 07:58:58;;;;;;;25.23;5.35;;;;;;;5.47;64.76;101237.25;5015158;28;20336;-75
2021/04/04 08:01:42;;;;;;;21.10;4.60;;;;;;;5.49;64.39;101238.06;5014750;28;20081;-75
2021/04/04 08:04:45;;;;;;;15.07;4.80;;;;;;;5.41;64.09;101230.28;5014172;28;20054;-77
2021/04/04 08:07:18;;;;;;;20.23;5.35;;;;;;;5.34;64.53;101226.03;5015192;28;20046;-77
2021/04/04 08:09:51;;;;;;;23.85;5.15;;;;;;;5.30;64.63;101235.81;5014662;28;20136;-75
2021/04/04 08:12:47;;;;;;;13.40;4.78;;;;;;;5.22;65.69;101248.34;5015294;28;20351;-75
2021/04/04 08:15:44;;;;;;;22.15;4.82;;;;;;;5.31;65.25;101244.63;5017710;28;20131;-73
2021/04/04 08:18:10;;;;;;;16.58;3.85;;;;;;;5.30;65.01;101241.09;5017894;28;20084;-72
2021/04/04 08:20:49;;;;;;;18.00;5.22;;;;;;;5.32;64.35;101238.44;5018657;28;20057;-74
2021/04/04 08:23:53;;;;;;;19.42;4.55;;;;;;;5.43;64.69;101238.19;5019130;28;20062;-72
2021/04/04 08:26:28;;;;;;;17.98;4.95;;;;;;;5.52;64.46;101238.00;5019056;28;20054;-73
2021/04/04 08:29:00;;;;;;;17.17;4.28;;;;;;;5.66;64.69;101237.69;5018805;28;20057;-77
2021/04/04 08:31:38;;;;;;;16.83;5.03;;;;;;;5.74;63.42;101231.31;5018870;28;20068;-76
2021/04/04 08:34:22;;;;;;;10.70;3.85;;;;;;;5.71;63.13;101238.44;5018516;28;20053;-74
2021/04/04 08:36:56;;;;;;;15.48;4.28;;;;;;;5.73;63.52;101241.06;5018784;28;20099;-72
2021/04/04 08:39:29;;;;;;;26.67;4.78;;;;;;;5.78;63.12;101240.97;5018860;28;20054;-76
2021/04/04 08:41:59;;;;;;;17.27;4.20;;;;;;;5.78;63.21;101244.47;5027486;28;20049;-72
2021/04/04 08:44:32;;;;;;;19.08;4.40;;;;;;;5.67;63.25;101246.50;5027714;28;20058;-75
2021/04/04 08:47:30;;;;;;;23.73;4.32;;;;;;;5.67;63.30;101230.63;5020864;28;20087;-74
2021/04/04 08:49:59;;;;;;;19.63;4.97;;;;;;;5.86;62.54;101233.69;5018180;28;20403;-74
2021/04/04 08:52:44;;;;;;;17.52;4.57;;;;;;;6.01;63.25;101243.06;5019060;28;20046;-78
2021/04/04 08:55:17;;;;;;;22.00;4.55;;;;;;;5.94;62.62;101237.03;5018796;28;20049;-77
2021/04/04 08:57:47;;;;;;;15.68;3.90;;;;;;;6.00;62.07;101241.31;5018882;28;20050;-75
2021/04/04 09:00:14;;;;;;;20.58;4.10;;;;;;;5.89;62.56;101241.56;5018252;28;20141;-79
2021/04/04 09:02:45;;;;;;;13.82;4.22;;;;;;;5.95;63.31;101246.72;5019016;28;20124;-76
2021/04/04 09:05:13;;;;;;;26.13;4.35;;;;;;;5.97;62.71;101229.00;5020009;28;20416;-78
2021/04/04 09:07:44;;;;;;;20.55;4.47;;;;;;;6.05;62.85;101250.03;5015836;28;20427;-76
2021/04/04 09:10:13;;;;;;;16.13;4.75;;;;;;;6.06;62.30;101238.53;5017573;28;20410;-76
2021/04/04 09:12:40;;;;;;;15.07;4.43;;;;;;;6.21;61.74;101241.72;5018744;28;20077;-77
2021/04/04 09:15:09;;;;;;;20.00;4.55;;;;;;;6.15;61.72;101231.28;5017365;28;20050;-76
2021/04/04 09:17:36;;;;;;;14.65;3.60;;;;;;;6.17;61.65;101242.69;5018273;28;20352;-77
2021/04/04 09:20:07;;;;;;;19.23;4.72;;;;;;;6.21;61.89;101231.13;5016932;28;20054;-76
2021/04/04 09:22:36;;;;;;;16.92;3.80;;;;;;;6.33;61.36;101221.97;5017130;28;20440;-75
2021/04/04 09:25:08;;;;;;;15.52;3.92;;;;;;;6.35;61.56;101234.28;5016774;28;20050;-77
2021/04/04 09:27:38;;;;;;;22.98;4.60;;;;;;;6.39;61.73;101249.19;5018219;28;20057;-77
2021/04/04 09:30:22;;;;;;;18.83;4.07;;;;;;;6.43;61.29;101243.81;5017450;28;20058;-75
2021/04/04 09:32:53;;;;;;;19.27;3.95;;;;;;;6.47;61.26;101245.47;5018076;28;20058;-73
2021/04/04 09:35:22;;;;;;;18.42;4.10;;;;;;;6.50;60.89;101237.44;5016771;28;20050;-71
2021/04/04 09:37:50;;;;;;;14.07;4.30;;;;;;;6.40;60.73;101220.91;5013413;28;20058;-73
2021/04/04 09:40:18;;;;;;;15.13;4.47;;;;;;;6.46;60.89;101219.84;5017099;28;20490;-74
2021/04/04 09:42:45;;;;;;;26.83;5.15;;;;;;;6.60;61.27;101235.41;5017623;28;20313;-74
2021/04/04 09:45:22;;;;;;;17.77;4.15;;;;;;;6.73;60.41;101226.19;4999800;28;20054;-74
2021/04/04 09:47:52;;;;;;;19.27;5.25;;;;;;;6.65;60.25;101215.78;5016356;28;20050;-76
2021/04/04 09:50:28;;;;;;;17.20;4.10;;;;;;;6.86;60.22;101228.53;5019314;28;20053;-76
2021/04/04 09:52:56;;;;;;;14.48;3.97;;;;;;;6.91;60.09;101227.47;5017048;28;20127;-75
2021/04/04 09:55:26;;;;;;;13.10;3.75;;;;;;;6.98;59.12;101219.31;5016606;28;20046;-74
2021/04/04 09:58:01;;;;;;;13.00;3.85;;;;;;;6.85;58.96;101219.69;5017288;28;20080;-74
2021/04/04 10:00:30;;;;;;;16.35;3.55;;;;;;;6.83;59.50;101220.63;5016682;28;20155;-75
2021/04/04 10:03:07;;;;;;;20.80;3.72;;;;;;;6.90;59.45;101219.53;5016581;28;20351;-74
2021/04/04 10:05:39;;;;;;;13.57;3.65;;;;;;;6.75;59.44;101215.56;5015397;28;20080;-74
2021/04/04 10:08:14;;;;;;;15.93;3.67;;;;;;;6.70;60.10;101206.84;5017157;28;20050;-74
2021/04/04 10:11:08;;;;;;;15.77;4.13;;;;;;;6.90;59.61;101206.25;5016937;28;20137;-74
2021/04/04 10:13:37;;;;;;;16.48;3.88;;;;;;;7.02;58.95;101197.94;5016473;28;20058;-73
2021/04/04 10:16:18;;;;;;;16.73;4.82;;;;;;;7.01;58.93;101190.91;5016403;28;20053;-73
2021/04/04 10:19:08;;;;;;;15.05;4.05;;;;;;;7.10;59.15;101207.47;5014058;28;20042;-74
2021/04/04 10:21:37;;;;;;;17.88;3.67;;;;;;;6.95;59.42;101201.69;5012295;28;20054;-73
2021/04/04 10:24:29;;;;;;;14.98;3.97;;;;;;;6.98;59.35;101190.13;5016020;28;20462;-75
2021/04/04 10:27:18;;;;;;;18.13;4.78;;;;;;;7.06;58.71;101199.63;5015106;28;20340;-72
2021/04/04 10:29:47;;;;;;;20.50;5.07;;;;;;;7.04;59.56;101184.66;4997068;28;20062;-75
2021/04/04 10:32:24;;;;;;;11.95;3.85;;;;;;;6.94;59.68;101186.69;4997061;28;20066;-76
2021/04/04 10:34:50;;;;;;;16.73;4.07;;;;;;;7.02;59.36;101192.66;4995483;28;20053;-75
2021/04/04 10:37:25;;;;;;;17.73;4.80;;;;;;;7.27;58.94;101183.06;5009765;28;20061;-76
2021/04/04 10:39:55;;;;;;;14.88;4.53;;;;;;;7.37;59.20;101181.88;5016283;28;20054;-72
2021/04/04 10:42:22;;;;;;;17.13;4.10;;;;;;;7.35;59.06;101181.03;5016376;28;20053;-76
2021/04/04 10:44:48;;;;;;;16.35;4.30;;;;;;;7.26;58.55;101176.03;5016019;28;20104;-74
2021/04/04 10:47:24;;;;;;;16.73;4.22;;;;;;;7.29;58.87;101170.59;5015776;28;20411;-74
2021/04/04 10:49:50;;;;;;;15.20;4.35;;;;;;;7.47;58.38;101172.69;5016991;28;20065;-73
2021/04/04 10:52:17;;;;;;;11.82;3.78;;;;;;;7.48;57.88;101174.41;5016705;28;20053;-74
2021/04/04 10:54:43;;;;;;;18.77;4.32;;;;;;;7.39;58.09;101165.88;5016360;28;20054;-70
2021/04/04 10:57:10;;;;;;;19.30;4.15;;;;;;;7.33;58.76;101164.28;5016132;28;20447;-71
2021/04/04 10:59:40;;;;;;;13.15;4.20;;;;;;;7.47;58.75;101151.44;5016246;28;20054;-71
2021/04/04 11:02:08;;;;;;;16.17;4.53;;;;;;;7.47;58.38;101146.13;5016101;28;20057;-71
2021/04/04 11:04:36;;;;;;;20.08;5.57;;;;;;;7.56;58.37;101150.28;5016003;28;20435;-73
2021/04/04 11:07:02;;;;;;;18.23;4.78;;;;;;;7.71;57.79;101148.91;5015893;28;20050;-71
2021/04/04 11:09:29;;;;;;;13.13;5.05;;;;;;;7.75;57.50;101137.25;5015820;28;20058;-71
2021/04/04 11:11:59;;;;;;;19.25;4.60;;;;;;;7.72;57.51;101142.69;5015433;28;20398;-73
2021/04/04 11:14:29;;;;;;;11.97;3.53;;;;;;;7.58;57.50;101145.78;5014839;28;20100;-71
2021/04/04 11:17:02;;;;;;;13.77;3.95;;;;;;;7.41;58.41;101119.75;5015738;28;20046;-71
2021/04/04 11:19:29;;;;;;;17.77;4.13;;;;;;;7.72;57.53;101140.00;5015310;28;20058;-72
2021/04/04 11:21:58;;;;;;;18.02;5.38;;;;;;;7.70;57.96;101131.25;5015152;28;20085;-72
2021/04/04 11:24:37;;;;;;;16.25;5.25;;;;;;;7.61;58.00;101119.13;5015729;28;20068;-72
2021/04/04 11:27:05;;;;;;;16.05;4.88;;;;;;;7.26;59.43;101117.59;5015375;28;20096;-72
2021/04/04 11:29:44;;;;;;;14.73;5.78;;;;;;;7.40;58.73;101111.88;5015253;28;20054;-71
2021/04/04 11:32:18;;;;;;;18.30;5.60;;;;;;;7.45;59.96;101108.13;5014537;28;20057;-70
2021/04/04 11:34:58;;;;;;;17.73;5.88;;;;;;;7.46;58.66;101104.53;5014623;28;20050;-72
2021/04/04 11:37:27;;;;;;;23.58;6.38;;;;;;;7.57;58.80;101103.34;5015613;28;20053;-73
2021/04/04 11:40:18;;;;;;;15.73;6.43;;;;;;;7.32;59.23;101104.13;5015716;28;20050;-73
2021/04/04 11:43:05;;;;;;;19.13;5.72;;;;;;;7.51;58.90;101088.44;5014262;28;20045;-73
2021/04/04 11:45:37;;;;;;;21.48;6.43;;;;;;;7.51;58.59;101098.22;5014886;28;20061;-76
2021/04/04 11:48:31;;;;;;;13.48;6.00;;;;;;;7.79;59.15;101094.63;5014656;28;20058;-73
2021/04/04 11:51:10;;;;;;;18.38;5.60;;;;;;;7.72;58.35;101092.19;5015434;28;20435;-74
2021/04/04 11:53:41;;;;;;;20.80;6.30;;;;;;;7.89;58.00;101082.75;5015482;28;20054;-73
2021/04/04 11:56:09;;;;;;;19.38;6.05;;;;;;;7.80;58.07;101077.75;5014199;28;20054;-74